sensor_id;sensor_type;location;lat;lon;timestamp;temperature;humidity
12761;DHT22;6444;49.742;6.114;2022-10-22T00:01:33;16.10;99.90
12761;DHT22;6444;49.742;6.114;2022-10-22T00:04:01;16.20;99.90
12761;DHT22;6444;49.742;6.114;2022-10-22T00:06:27;16.10;99.90
12761;DHT22;6444;49.742;6.114;2022-10-22T00:08:54;16.30;99.90
12761;DHT22;6444;49.742;6.114;2022-10-22T00:11:21;16.30;99.90
12761;DHT22;6444;49.742;6.114;2022-10-22T00:13:48;16.10;99.90
12761;DHT22;6444;49.742;6.114;2022-10-22T00:16:14;15.80;99.90
12761;DHT22;6444;49.742;6.114;2022-10-22T00:18:41;15.90;99.90
12761;DHT22;6444;49.742;6.114;2022-10-22T00:21:08;15.80;99.90
12761;DHT22;6444;49.742;6.114;2022-10-22T00:23:35;16.00;99.90
12761;DHT22;6444;49.742;6.114;2022-10-22T00:26:01;16.00;99.90
12761;DHT22;6444;49.742;6.114;2022-10-22T00:28:28;16.20;99.90
12761;DHT22;6444;49.742;6.114;2022-10-22T00:30:55;16.10;99.90
12761;DHT22;6444;49.742;6.114;2022-10-22T00:33:22;15.90;99.90
12761;DHT22;6444;49.742;6.114;2022-10-22T00:35:48;15.90;99.90
12761;DHT22;6444;49.742;6.114;2022-10-22T00:38:15;15.90;99.90
12761;DHT22;6444;49.742;6.114;2022-10-22T00:40:42;16.00;99.90
12761;DHT22;6444;49.742;6.114;2022-10-22T00:43:16;16.00;99.90
12761;DHT22;6444;49.742;6.114;2022-10-22T00:45:41;16.00;99.90
12761;DHT22;6444;49.742;6.114;2022-10-22T00:48:12;16.00;99.90
12761;DHT22;6444;49.742;6.114;2022-10-22T00:50:47;16.10;99.90
12761;DHT22;6444;49.742;6.114;2022-10-22T00:53:17;16.00;99.90
12761;DHT22;6444;49.742;6.114;2022-10-22T00:55:40;15.90;99.90
12761;DHT22;6444;49.742;6.114;2022-10-22T00:58:06;16.10;99.90
12761;DHT22;6444;49.742;6.114;2022-10-22T01:00:35;16.10;99.90
12761;DHT22;6444;49.742;6.114;2022-10-22T01:02:59;16.10;99.90
12761;DHT22;6444;49.742;6.114;2022-10-22T01:05:27;16.10;99.90
12761;DHT22;6444;49.742;6.114;2022-10-22T01:07:53;16.00;99.90
12761;DHT22;6444;49.742;6.114;2022-10-22T01:10:35;16.00;99.90
12761;DHT22;6444;49.742;6.114;2022-10-22T01:13:42;16.00;99.90
12761;DHT22;6444;49.742;6.114;2022-10-22T01:18:40;16.10;99.90
12761;DHT22;6444;49.742;6.114;2022-10-22T01:29:16;16.10;99.90
12761;DHT22;6444;49.742;6.114;2022-10-22T01:31:50;16.00;99.90
12761;DHT22;6444;49.742;6.114;2022-10-22T01:34:11;16.00;99.90
12761;DHT22;6444;49.742;6.114;2022-10-22T01:36:37;16.00;99.90
12761;DHT22;6444;49.742;6.114;2022-10-22T01:39:05;15.90;99.90
12761;DHT22;6444;49.742;6.114;2022-10-22T01:41:31;15.90;99.90
12761;DHT22;6444;49.742;6.114;2022-10-22T01:43:58;15.80;99.90
12761;DHT22;6444;49.742;6.114;2022-10-22T01:46:26;15.90;99.90
12761;DHT22;6444;49.742;6.114;2022-10-22T01:49:13;15.80;99.90
12761;DHT22;6444;49.742;6.114;2022-10-22T01:57:08;15.80;99.90
12761;DHT22;6444;49.742;6.114;2022-10-22T02:02:38;15.70;99.90
12761;DHT22;6444;49.742;6.114;2022-10-22T02:05:15;15.80;99.90
12761;DHT22;6444;49.742;6.114;2022-10-22T02:07:42;15.80;99.90
12761;DHT22;6444;49.742;6.114;2022-10-22T02:10:07;15.70;99.90
12761;DHT22;6444;49.742;6.114;2022-10-22T02:12:33;15.70;99.90
12761;DHT22;6444;49.742;6.114;2022-10-22T02:15:00;15.60;99.90
12761;DHT22;6444;49.742;6.114;2022-10-22T02:17:27;15.60;99.90
12761;DHT22;6444;49.742;6.114;2022-10-22T02:19:56;15.80;99.90
12761;DHT22;6444;49.742;6.114;2022-10-22T02:22:23;16.10;99.90
12761;DHT22;6444;49.742;6.114;2022-10-22T02:24:49;15.80;99.90
12761;DHT22;6444;49.742;6.114;2022-10-22T02:27:37;15.70;99.90
12761;DHT22;6444;49.742;6.114;2022-10-22T02:30:11;15.60;99.90
12761;DHT22;6444;49.742;6.114;2022-10-22T02:35:14;15.80;99.90
12761;DHT22;6444;49.742;6.114;2022-10-22T02:37:39;15.80;99.90
12761;DHT22;6444;49.742;6.114;2022-10-22T02:40:06;15.60;99.90
12761;DHT22;6444;49.742;6.114;2022-10-22T02:42:33;15.40;99.90
12761;DHT22;6444;49.742;6.114;2022-10-22T02:45:00;15.30;99.90
12761;DHT22;6444;49.742;6.114;2022-10-22T02:47:26;15.50;99.90
12761;DHT22;6444;49.742;6.114;2022-10-22T02:49:53;15.80;99.90
12761;DHT22;6444;49.742;6.114;2022-10-22T02:52:20;16.30;99.90
12761;DHT22;6444;49.742;6.114;2022-10-22T02:54:46;16.00;99.90
12761;DHT22;6444;49.742;6.114;2022-10-22T02:57:13;15.90;99.90
12761;DHT22;6444;49.742;6.114;2022-10-22T02:59:40;15.80;99.90
12761;DHT22;6444;49.742;6.114;2022-10-22T03:02:07;15.80;99.90
12761;DHT22;6444;49.742;6.114;2022-10-22T03:04:34;15.60;99.90
12761;DHT22;6444;49.742;6.114;2022-10-22T03:07:00;15.40;99.90
12761;DHT22;6444;49.742;6.114;2022-10-22T03:09:27;15.40;99.90
12761;DHT22;6444;49.742;6.114;2022-10-22T03:11:54;15.30;99.90
12761;DHT22;6444;49.742;6.114;2022-10-22T03:14:21;15.30;99.90
12761;DHT22;6444;49.742;6.114;2022-10-22T03:16:47;15.50;99.90
12761;DHT22;6444;49.742;6.114;2022-10-22T03:19:14;15.30;99.90
12761;DHT22;6444;49.742;6.114;2022-10-22T03:21:54;15.00;99.90
12761;DHT22;6444;49.742;6.114;2022-10-22T03:24:24;15.10;99.90
12761;DHT22;6444;49.742;6.114;2022-10-22T03:26:49;14.90;99.90
12761;DHT22;6444;49.742;6.114;2022-10-22T03:32:06;15.20;99.90
12761;DHT22;6444;49.742;6.114;2022-10-22T03:43:23;15.00;99.90
12761;DHT22;6444;49.742;6.114;2022-10-22T03:45:50;14.60;99.90
12761;DHT22;6444;49.742;6.114;2022-10-22T03:48:16;15.10;99.90
12761;DHT22;6444;49.742;6.114;2022-10-22T03:50:44;15.30;99.90
12761;DHT22;6444;49.742;6.114;2022-10-22T03:53:11;15.30;99.90
12761;DHT22;6444;49.742;6.114;2022-10-22T03:55:39;15.20;99.90
12761;DHT22;6444;49.742;6.114;2022-10-22T03:58:04;15.30;99.90
12761;DHT22;6444;49.742;6.114;2022-10-22T04:00:31;15.70;99.90
12761;DHT22;6444;49.742;6.114;2022-10-22T04:02:57;15.80;99.90
12761;DHT22;6444;49.742;6.114;2022-10-22T04:05:24;15.00;99.90
12761;DHT22;6444;49.742;6.114;2022-10-22T04:07:50;14.70;99.90
12761;DHT22;6444;49.742;6.114;2022-10-22T04:10:17;14.90;99.90
12761;DHT22;6444;49.742;6.114;2022-10-22T04:12:47;15.50;99.90
12761;DHT22;6444;49.742;6.114;2022-10-22T04:15:14;15.50;99.90
12761;DHT22;6444;49.742;6.114;2022-10-22T04:17:40;15.20;99.90
12761;DHT22;6444;49.742;6.114;2022-10-22T04:20:07;15.10;99.90
12761;DHT22;6444;49.742;6.114;2022-10-22T04:22:34;15.00;99.90
12761;DHT22;6444;49.742;6.114;2022-10-22T04:25:01;14.60;99.90
12761;DHT22;6444;49.742;6.114;2022-10-22T04:27:30;14.50;99.90
12761;DHT22;6444;49.742;6.114;2022-10-22T04:29:57;14.60;99.90
12761;DHT22;6444;49.742;6.114;2022-10-22T04:32:24;14.40;99.90
12761;DHT22;6444;49.742;6.114;2022-10-22T04:34:50;14.40;99.90
12761;DHT22;6444;49.742;6.114;2022-10-22T04:37:16;14.30;99.90
12761;DHT22;6444;49.742;6.114;2022-10-22T04:39:44;14.90;99.90
12761;DHT22;6444;49.742;6.114;2022-10-22T04:42:10;14.90;99.90
12761;DHT22;6444;49.742;6.114;2022-10-22T04:44:37;14.80;99.90
12761;DHT22;6444;49.742;6.114;2022-10-22T04:47:04;14.60;99.90
12761;DHT22;6444;49.742;6.114;2022-10-22T04:49:30;14.70;99.90
12761;DHT22;6444;49.742;6.114;2022-10-22T04:51:57;14.60;99.90
12761;DHT22;6444;49.742;6.114;2022-10-22T04:54:24;14.50;99.90
12761;DHT22;6444;49.742;6.114;2022-10-22T04:56:51;14.10;99.90
12761;DHT22;6444;49.742;6.114;2022-10-22T04:59:18;14.10;99.90
12761;DHT22;6444;49.742;6.114;2022-10-22T05:01:44;14.00;99.90
12761;DHT22;6444;49.742;6.114;2022-10-22T05:04:12;14.40;99.90
12761;DHT22;6444;49.742;6.114;2022-10-22T05:06:38;14.40;99.90
12761;DHT22;6444;49.742;6.114;2022-10-22T05:09:05;14.50;99.90
12761;DHT22;6444;49.742;6.114;2022-10-22T05:11:33;14.30;99.90
12761;DHT22;6444;49.742;6.114;2022-10-22T05:13:59;14.30;99.90
12761;DHT22;6444;49.742;6.114;2022-10-22T05:16:26;14.50;99.90
12761;DHT22;6444;49.742;6.114;2022-10-22T05:18:51;14.20;99.90
12761;DHT22;6444;49.742;6.114;2022-10-22T05:21:19;14.00;99.90
12761;DHT22;6444;49.742;6.114;2022-10-22T05:23:46;13.80;99.90
12761;DHT22;6444;49.742;6.114;2022-10-22T05:26:13;13.70;99.90
12761;DHT22;6444;49.742;6.114;2022-10-22T05:28:39;13.90;99.90
12761;DHT22;6444;49.742;6.114;2022-10-22T05:31:06;14.00;99.90
12761;DHT22;6444;49.742;6.114;2022-10-22T05:33:32;14.20;99.90
12761;DHT22;6444;49.742;6.114;2022-10-22T05:35:59;14.40;99.90
12761;DHT22;6444;49.742;6.114;2022-10-22T05:38:26;14.60;99.90
12761;DHT22;6444;49.742;6.114;2022-10-22T05:40:59;14.60;99.90
12761;DHT22;6444;49.742;6.114;2022-10-22T05:43:25;14.90;99.90
12761;DHT22;6444;49.742;6.114;2022-10-22T05:45:52;14.80;99.90
12761;DHT22;6444;49.742;6.114;2022-10-22T05:48:19;14.80;99.90
12761;DHT22;6444;49.742;6.114;2022-10-22T05:50:45;14.40;99.90
12761;DHT22;6444;49.742;6.114;2022-10-22T05:53:12;14.10;99.90
12761;DHT22;6444;49.742;6.114;2022-10-22T05:55:38;14.30;99.90
12761;DHT22;6444;49.742;6.114;2022-10-22T05:58:05;14.40;99.90
12761;DHT22;6444;49.742;6.114;2022-10-22T06:00:32;14.60;99.90
12761;DHT22;6444;49.742;6.114;2022-10-22T06:02:58;15.00;99.90
12761;DHT22;6444;49.742;6.114;2022-10-22T06:05:25;14.90;99.90
12761;DHT22;6444;49.742;6.114;2022-10-22T06:07:52;14.70;99.90
12761;DHT22;6444;49.742;6.114;2022-10-22T06:10:19;14.70;99.90
12761;DHT22;6444;49.742;6.114;2022-10-22T06:12:46;14.70;99.90
12761;DHT22;6444;49.742;6.114;2022-10-22T06:15:15;14.50;99.90
12761;DHT22;6444;49.742;6.114;2022-10-22T06:17:39;14.40;99.90
12761;DHT22;6444;49.742;6.114;2022-10-22T06:20:06;14.70;99.90
12761;DHT22;6444;49.742;6.114;2022-10-22T06:22:32;14.80;99.90
12761;DHT22;6444;49.742;6.114;2022-10-22T06:24:59;14.40;99.90
12761;DHT22;6444;49.742;6.114;2022-10-22T06:27:25;14.10;99.90
12761;DHT22;6444;49.742;6.114;2022-10-22T06:29:52;14.00;99.90
12761;DHT22;6444;49.742;6.114;2022-10-22T06:32:19;13.70;99.90
12761;DHT22;6444;49.742;6.114;2022-10-22T06:34:45;13.60;99.90
12761;DHT22;6444;49.742;6.114;2022-10-22T06:37:12;13.60;99.90
12761;DHT22;6444;49.742;6.114;2022-10-22T06:39:41;13.50;99.90
12761;DHT22;6444;49.742;6.114;2022-10-22T06:42:08;13.70;99.90
12761;DHT22;6444;49.742;6.114;2022-10-22T06:44:35;13.70;99.90
12761;DHT22;6444;49.742;6.114;2022-10-22T06:47:01;13.90;99.90
12761;DHT22;6444;49.742;6.114;2022-10-22T06:49:28;13.90;99.90
12761;DHT22;6444;49.742;6.114;2022-10-22T06:51:55;13.90;99.90
12761;DHT22;6444;49.742;6.114;2022-10-22T06:54:21;14.20;99.90
12761;DHT22;6444;49.742;6.114;2022-10-22T06:56:49;13.90;99.90
12761;DHT22;6444;49.742;6.114;2022-10-22T06:59:15;13.90;99.90
12761;DHT22;6444;49.742;6.114;2022-10-22T07:01:42;14.10;99.90
12761;DHT22;6444;49.742;6.114;2022-10-22T07:04:09;14.00;99.90
12761;DHT22;6444;49.742;6.114;2022-10-22T07:06:35;14.20;99.90
12761;DHT22;6444;49.742;6.114;2022-10-22T07:09:02;14.20;99.90
12761;DHT22;6444;49.742;6.114;2022-10-22T07:11:42;14.20;99.90
12761;DHT22;6444;49.742;6.114;2022-10-22T07:14:08;14.20;99.90
12761;DHT22;6444;49.742;6.114;2022-10-22T07:16:34;14.80;99.90
12761;DHT22;6444;49.742;6.114;2022-10-22T07:19:02;15.00;99.90
12761;DHT22;6444;49.742;6.114;2022-10-22T07:21:28;15.00;99.90
12761;DHT22;6444;49.742;6.114;2022-10-22T07:23:55;15.40;99.90
12761;DHT22;6444;49.742;6.114;2022-10-22T07:26:22;15.40;99.90
12761;DHT22;6444;49.742;6.114;2022-10-22T07:28:48;15.40;99.90
12761;DHT22;6444;49.742;6.114;2022-10-22T07:31:17;15.30;99.90
12761;DHT22;6444;49.742;6.114;2022-10-22T07:33:41;15.50;99.90
12761;DHT22;6444;49.742;6.114;2022-10-22T07:36:10;15.90;99.90
12761;DHT22;6444;49.742;6.114;2022-10-22T07:38:35;15.50;99.90
12761;DHT22;6444;49.742;6.114;2022-10-22T07:41:01;15.30;99.90
12761;DHT22;6444;49.742;6.114;2022-10-22T07:43:28;15.20;99.90
12761;DHT22;6444;49.742;6.114;2022-10-22T07:45:54;15.20;99.90
12761;DHT22;6444;49.742;6.114;2022-10-22T07:48:21;14.80;99.90
12761;DHT22;6444;49.742;6.114;2022-10-22T07:50:48;14.60;99.90
12761;DHT22;6444;49.742;6.114;2022-10-22T07:53:14;14.80;99.90
12761;DHT22;6444;49.742;6.114;2022-10-22T07:55:41;14.90;99.90
12761;DHT22;6444;49.742;6.114;2022-10-22T07:58:08;14.90;99.90
12761;DHT22;6444;49.742;6.114;2022-10-22T08:00:35;15.50;99.90
12761;DHT22;6444;49.742;6.114;2022-10-22T08:03:02;15.40;99.90
12761;DHT22;6444;49.742;6.114;2022-10-22T08:05:28;15.20;99.90
12761;DHT22;6444;49.742;6.114;2022-10-22T08:07:55;14.80;99.90
12761;DHT22;6444;49.742;6.114;2022-10-22T08:10:22;15.10;99.90
12761;DHT22;6444;49.742;6.114;2022-10-22T08:12:49;15.00;99.90
12761;DHT22;6444;49.742;6.114;2022-10-22T08:15:15;15.10;99.90
12761;DHT22;6444;49.742;6.114;2022-10-22T08:17:42;15.30;99.90
12761;DHT22;6444;49.742;6.114;2022-10-22T08:20:09;15.70;99.90
12761;DHT22;6444;49.742;6.114;2022-10-22T08:22:36;16.00;99.90
12761;DHT22;6444;49.742;6.114;2022-10-22T08:25:02;16.00;99.90
12761;DHT22;6444;49.742;6.114;2022-10-22T08:27:29;15.90;99.90
12761;DHT22;6444;49.742;6.114;2022-10-22T08:29:55;16.40;99.90
12761;DHT22;6444;49.742;6.114;2022-10-22T08:32:22;16.20;99.90
12761;DHT22;6444;49.742;6.114;2022-10-22T08:34:49;16.10;99.90
12761;DHT22;6444;49.742;6.114;2022-10-22T08:37:16;16.10;99.90
12761;DHT22;6444;49.742;6.114;2022-10-22T08:39:43;16.40;99.90
12761;DHT22;6444;49.742;6.114;2022-10-22T08:47:55;16.60;99.90
12761;DHT22;6444;49.742;6.114;2022-10-22T08:50:26;16.90;99.90
12761;DHT22;6444;49.742;6.114;2022-10-22T08:52:50;17.00;99.90
12761;DHT22;6444;49.742;6.114;2022-10-22T08:55:23;16.80;99.90
12761;DHT22;6444;49.742;6.114;2022-10-22T08:57:51;16.90;99.90
12761;DHT22;6444;49.742;6.114;2022-10-22T09:00:39;17.10;99.90
12761;DHT22;6444;49.742;6.114;2022-10-22T09:04:03;17.90;99.90
12761;DHT22;6444;49.742;6.114;2022-10-22T09:08:18;18.40;99.90
12761;DHT22;6444;49.742;6.114;2022-10-22T09:10:46;18.70;99.90
12761;DHT22;6444;49.742;6.114;2022-10-22T09:13:13;18.80;99.90
12761;DHT22;6444;49.742;6.114;2022-10-22T09:15:39;19.40;99.90
12761;DHT22;6444;49.742;6.114;2022-10-22T09:20:42;20.40;99.90
12761;DHT22;6444;49.742;6.114;2022-10-22T09:25:31;21.40;99.90
12761;DHT22;6444;49.742;6.114;2022-10-22T09:27:58;20.50;99.90
12761;DHT22;6444;49.742;6.114;2022-10-22T09:30:26;20.50;99.90
12761;DHT22;6444;49.742;6.114;2022-10-22T09:35:24;19.80;99.90
12761;DHT22;6444;49.742;6.114;2022-10-22T09:37:52;19.30;99.90
12761;DHT22;6444;49.742;6.114;2022-10-22T09:40:17;19.20;99.90
12761;DHT22;6444;49.742;6.114;2022-10-22T09:42:44;19.20;99.90
12761;DHT22;6444;49.742;6.114;2022-10-22T09:45:14;19.40;99.90
12761;DHT22;6444;49.742;6.114;2022-10-22T09:47:40;20.10;99.90
12761;DHT22;6444;49.742;6.114;2022-10-22T09:53:12;21.00;99.90
12761;DHT22;6444;49.742;6.114;2022-10-22T09:55:38;20.90;99.90
12761;DHT22;6444;49.742;6.114;2022-10-22T09:58:04;22.10;99.90
12761;DHT22;6444;49.742;6.114;2022-10-22T10:00:33;21.80;99.90
12761;DHT22;6444;49.742;6.114;2022-10-22T10:03:00;21.10;99.90
12761;DHT22;6444;49.742;6.114;2022-10-22T10:05:33;21.10;99.90
12761;DHT22;6444;49.742;6.114;2022-10-22T10:08:13;21.00;99.90
12761;DHT22;6444;49.742;6.114;2022-10-22T10:10:49;21.30;99.90
12761;DHT22;6444;49.742;6.114;2022-10-22T10:13:42;21.30;99.90
12761;DHT22;6444;49.742;6.114;2022-10-22T10:24:11;20.90;99.90
12761;DHT22;6444;49.742;6.114;2022-10-22T10:26:44;19.70;99.90
12761;DHT22;6444;49.742;6.114;2022-10-22T10:30:00;19.70;99.90
12761;DHT22;6444;49.742;6.114;2022-10-22T10:34:41;19.80;99.90
12761;DHT22;6444;49.742;6.114;2022-10-22T10:37:11;20.30;99.90
12761;DHT22;6444;49.742;6.114;2022-10-22T10:42:43;20.00;99.90
12761;DHT22;6444;49.742;6.114;2022-10-22T10:58:50;20.20;99.90
12761;DHT22;6444;49.742;6.114;2022-10-22T11:06:25;20.40;99.90
12761;DHT22;6444;49.742;6.114;2022-10-22T11:09:01;20.40;99.90
12761;DHT22;6444;49.742;6.114;2022-10-22T11:11:35;20.00;99.90
12761;DHT22;6444;49.742;6.114;2022-10-22T11:14:20;19.90;99.90
12761;DHT22;6444;49.742;6.114;2022-10-22T11:16:45;19.40;99.90
12761;DHT22;6444;49.742;6.114;2022-10-22T11:22:02;19.40;99.90
12761;DHT22;6444;49.742;6.114;2022-10-22T11:24:31;19.40;99.90
12761;DHT22;6444;49.742;6.114;2022-10-22T11:27:00;19.80;99.90
12761;DHT22;6444;49.742;6.114;2022-10-22T11:29:34;19.90;99.90
12761;DHT22;6444;49.742;6.114;2022-10-22T11:31:58;19.80;99.90
12761;DHT22;6444;49.742;6.114;2022-10-22T11:34:30;19.60;99.90
12761;DHT22;6444;49.742;6.114;2022-10-22T11:36:55;19.60;99.90
12761;DHT22;6444;49.742;6.114;2022-10-22T11:39:35;19.50;99.90
12761;DHT22;6444;49.742;6.114;2022-10-22T11:42:03;20.00;99.90
12761;DHT22;6444;49.742;6.114;2022-10-22T11:44:30;20.50;99.90
12761;DHT22;6444;49.742;6.114;2022-10-22T11:46:58;20.40;99.90
12761;DHT22;6444;49.742;6.114;2022-10-22T11:49:25;20.30;99.90
12761;DHT22;6444;49.742;6.114;2022-10-22T11:51:51;20.30;99.90
12761;DHT22;6444;49.742;6.114;2022-10-22T11:54:31;20.10;99.90
12761;DHT22;6444;49.742;6.114;2022-10-22T11:56:57;20.00;99.90
12761;DHT22;6444;49.742;6.114;2022-10-22T11:59:44;19.80;99.90
12761;DHT22;6444;49.742;6.114;2022-10-22T12:02:22;19.60;99.90
12761;DHT22;6444;49.742;6.114;2022-10-22T12:04:47;19.60;99.90
12761;DHT22;6444;49.742;6.114;2022-10-22T12:07:47;19.50;99.90
12761;DHT22;6444;49.742;6.114;2022-10-22T12:10:05;19.90;99.90
12761;DHT22;6444;49.742;6.114;2022-10-22T12:12:33;20.30;99.90
12761;DHT22;6444;49.742;6.114;2022-10-22T12:14:56;20.50;99.90
12761;DHT22;6444;49.742;6.114;2022-10-22T12:17:22;20.40;99.90
12761;DHT22;6444;49.742;6.114;2022-10-22T12:19:50;20.50;99.90
12761;DHT22;6444;49.742;6.114;2022-10-22T12:22:28;20.70;99.90
12761;DHT22;6444;49.742;6.114;2022-10-22T12:24:54;20.80;99.90
12761;DHT22;6444;49.742;6.114;2022-10-22T12:27:24;21.30;99.90
12761;DHT22;6444;49.742;6.114;2022-10-22T12:29:53;21.20;99.90
12761;DHT22;6444;49.742;6.114;2022-10-22T12:32:19;21.00;99.90
12761;DHT22;6444;49.742;6.114;2022-10-22T12:34:51;21.40;99.90
12761;DHT22;6444;49.742;6.114;2022-10-22T12:37:17;21.50;99.90
12761;DHT22;6444;49.742;6.114;2022-10-22T12:39:45;21.20;99.90
12761;DHT22;6444;49.742;6.114;2022-10-22T12:42:12;21.10;99.90
12761;DHT22;6444;49.742;6.114;2022-10-22T12:44:38;21.50;99.90
12761;DHT22;6444;49.742;6.114;2022-10-22T12:47:05;21.50;99.90
12761;DHT22;6444;49.742;6.114;2022-10-22T12:49:38;23.10;99.90
12761;DHT22;6444;49.742;6.114;2022-10-22T12:52:05;23.00;99.90
12761;DHT22;6444;49.742;6.114;2022-10-22T12:54:32;23.70;99.90
12761;DHT22;6444;49.742;6.114;2022-10-22T12:56:58;23.80;99.90
12761;DHT22;6444;49.742;6.114;2022-10-22T13:01:54;22.80;99.90
12761;DHT22;6444;49.742;6.114;2022-10-22T13:04:33;21.90;99.90
12761;DHT22;6444;49.742;6.114;2022-10-22T13:09:41;21.40;99.90
12761;DHT22;6444;49.742;6.114;2022-10-22T13:12:07;20.90;99.90
12761;DHT22;6444;49.742;6.114;2022-10-22T13:14:34;20.80;99.90
12761;DHT22;6444;49.742;6.114;2022-10-22T13:17:08;20.90;99.90
12761;DHT22;6444;49.742;6.114;2022-10-22T13:22:26;20.30;99.90
12761;DHT22;6444;49.742;6.114;2022-10-22T13:24:52;19.80;99.90
12761;DHT22;6444;49.742;6.114;2022-10-22T13:27:18;19.70;99.90
12761;DHT22;6444;49.742;6.114;2022-10-22T13:29:45;20.00;99.90
12761;DHT22;6444;49.742;6.114;2022-10-22T13:34:50;19.80;99.90
12761;DHT22;6444;49.742;6.114;2022-10-22T13:37:16;19.60;99.90
12761;DHT22;6444;49.742;6.114;2022-10-22T13:39:43;19.50;99.90
12761;DHT22;6444;49.742;6.114;2022-10-22T13:42:11;19.60;99.90
12761;DHT22;6444;49.742;6.114;2022-10-22T13:44:37;19.60;99.90
12761;DHT22;6444;49.742;6.114;2022-10-22T13:47:07;19.70;99.90
12761;DHT22;6444;49.742;6.114;2022-10-22T13:49:30;19.80;99.90
12761;DHT22;6444;49.742;6.114;2022-10-22T13:51:57;20.10;99.90
12761;DHT22;6444;49.742;6.114;2022-10-22T13:54:23;20.30;99.90
12761;DHT22;6444;49.742;6.114;2022-10-22T13:56:50;20.40;99.90
12761;DHT22;6444;49.742;6.114;2022-10-22T13:59:17;20.50;99.90
12761;DHT22;6444;49.742;6.114;2022-10-22T14:01:43;20.50;99.90
12761;DHT22;6444;49.742;6.114;2022-10-22T14:04:11;20.40;99.90
12761;DHT22;6444;49.742;6.114;2022-10-22T14:06:37;20.30;99.90
12761;DHT22;6444;49.742;6.114;2022-10-22T14:09:05;20.30;99.90
12761;DHT22;6444;49.742;6.114;2022-10-22T14:11:31;20.20;99.90
12761;DHT22;6444;49.742;6.114;2022-10-22T14:13:57;20.00;99.90
12761;DHT22;6444;49.742;6.114;2022-10-22T14:16:28;20.20;99.90
12761;DHT22;6444;49.742;6.114;2022-10-22T14:18:54;20.20;99.90
12761;DHT22;6444;49.742;6.114;2022-10-22T14:21:21;20.50;99.90
12761;DHT22;6444;49.742;6.114;2022-10-22T14:23:47;20.30;99.90
12761;DHT22;6444;49.742;6.114;2022-10-22T14:26:28;20.30;99.90
12761;DHT22;6444;49.742;6.114;2022-10-22T14:28:55;19.70;99.90
12761;DHT22;6444;49.742;6.114;2022-10-22T14:31:22;19.60;99.90
12761;DHT22;6444;49.742;6.114;2022-10-22T14:33:49;19.90;99.90
12761;DHT22;6444;49.742;6.114;2022-10-22T14:36:16;19.60;99.90
12761;DHT22;6444;49.742;6.114;2022-10-22T14:38:42;19.70;99.90
12761;DHT22;6444;49.742;6.114;2022-10-22T14:41:19;19.90;99.90
12761;DHT22;6444;49.742;6.114;2022-10-22T14:43:44;19.90;99.90
12761;DHT22;6444;49.742;6.114;2022-10-22T14:46:11;19.80;99.90
12761;DHT22;6444;49.742;6.114;2022-10-22T14:48:37;19.50;99.90
12761;DHT22;6444;49.742;6.114;2022-10-22T14:51:03;19.60;99.90
12761;DHT22;6444;49.742;6.114;2022-10-22T14:53:30;19.70;99.90
12761;DHT22;6444;49.742;6.114;2022-10-22T14:55:57;19.30;99.90
12761;DHT22;6444;49.742;6.114;2022-10-22T14:58:24;19.30;99.90
12761;DHT22;6444;49.742;6.114;2022-10-22T15:00:50;19.60;99.90
12761;DHT22;6444;49.742;6.114;2022-10-22T15:03:17;19.70;99.90
12761;DHT22;6444;49.742;6.114;2022-10-22T15:05:43;19.90;99.90
12761;DHT22;6444;49.742;6.114;2022-10-22T15:08:10;20.50;99.90
12761;DHT22;6444;49.742;6.114;2022-10-22T15:10:36;20.60;99.90
12761;DHT22;6444;49.742;6.114;2022-10-22T15:13:03;21.10;99.90
12761;DHT22;6444;49.742;6.114;2022-10-22T15:15:30;21.40;99.90
12761;DHT22;6444;49.742;6.114;2022-10-22T15:17:56;21.40;99.90
12761;DHT22;6444;49.742;6.114;2022-10-22T15:20:23;21.60;99.90
12761;DHT22;6444;49.742;6.114;2022-10-22T15:22:50;20.90;99.90
12761;DHT22;6444;49.742;6.114;2022-10-22T15:25:17;20.90;99.90
12761;DHT22;6444;49.742;6.114;2022-10-22T15:27:44;20.10;99.90
12761;DHT22;6444;49.742;6.114;2022-10-22T15:30:10;19.80;99.90
12761;DHT22;6444;49.742;6.114;2022-10-22T15:32:37;19.60;99.90
12761;DHT22;6444;49.742;6.114;2022-10-22T15:35:04;19.70;99.90
12761;DHT22;6444;49.742;6.114;2022-10-22T15:37:30;20.10;99.90
12761;DHT22;6444;49.742;6.114;2022-10-22T15:39:57;20.70;99.90
12761;DHT22;6444;49.742;6.114;2022-10-22T15:42:24;20.70;99.90
12761;DHT22;6444;49.742;6.114;2022-10-22T15:44:55;20.70;99.90
12761;DHT22;6444;49.742;6.114;2022-10-22T15:47:17;20.70;99.90
12761;DHT22;6444;49.742;6.114;2022-10-22T15:49:44;21.00;99.90
12761;DHT22;6444;49.742;6.114;2022-10-22T15:52:10;20.70;99.90
12761;DHT22;6444;49.742;6.114;2022-10-22T15:54:37;20.90;99.90
12761;DHT22;6444;49.742;6.114;2022-10-22T15:57:03;21.10;99.90
12761;DHT22;6444;49.742;6.114;2022-10-22T15:59:30;20.50;99.90
12761;DHT22;6444;49.742;6.114;2022-10-22T16:01:57;20.50;99.90
12761;DHT22;6444;49.742;6.114;2022-10-22T16:04:23;20.70;99.90
12761;DHT22;6444;49.742;6.114;2022-10-22T16:06:51;20.60;99.90
12761;DHT22;6444;49.742;6.114;2022-10-22T16:09:23;20.10;99.90
12761;DHT22;6444;49.742;6.114;2022-10-22T16:11:49;20.00;99.90
12761;DHT22;6444;49.742;6.114;2022-10-22T16:14:16;19.40;99.90
12761;DHT22;6444;49.742;6.114;2022-10-22T16:16:43;19.00;99.90
12761;DHT22;6444;49.742;6.114;2022-10-22T16:19:10;18.50;99.90
12761;DHT22;6444;49.742;6.114;2022-10-22T16:21:35;18.40;99.90
12761;DHT22;6444;49.742;6.114;2022-10-22T16:24:02;18.40;99.90
12761;DHT22;6444;49.742;6.114;2022-10-22T16:26:28;18.30;99.90
12761;DHT22;6444;49.742;6.114;2022-10-22T16:28:55;18.60;99.90
12761;DHT22;6444;49.742;6.114;2022-10-22T16:31:22;18.80;99.90
12761;DHT22;6444;49.742;6.114;2022-10-22T16:33:48;19.00;99.90
12761;DHT22;6444;49.742;6.114;2022-10-22T16:36:16;19.00;99.90
12761;DHT22;6444;49.742;6.114;2022-10-22T16:38:43;19.00;99.90
12761;DHT22;6444;49.742;6.114;2022-10-22T16:41:10;19.00;99.90
12761;DHT22;6444;49.742;6.114;2022-10-22T16:43:36;18.90;99.90
12761;DHT22;6444;49.742;6.114;2022-10-22T16:46:02;18.80;99.90
12761;DHT22;6444;49.742;6.114;2022-10-22T16:48:29;18.90;99.90
12761;DHT22;6444;49.742;6.114;2022-10-22T16:50:57;18.80;99.90
12761;DHT22;6444;49.742;6.114;2022-10-22T16:53:23;18.80;99.90
12761;DHT22;6444;49.742;6.114;2022-10-22T16:55:49;18.80;99.90
12761;DHT22;6444;49.742;6.114;2022-10-22T16:58:16;18.70;99.90
12761;DHT22;6444;49.742;6.114;2022-10-22T17:00:43;18.70;99.90
12761;DHT22;6444;49.742;6.114;2022-10-22T17:03:10;18.50;99.90
12761;DHT22;6444;49.742;6.114;2022-10-22T17:05:37;18.40;99.90
12761;DHT22;6444;49.742;6.114;2022-10-22T17:08:03;18.40;99.90
12761;DHT22;6444;49.742;6.114;2022-10-22T17:10:30;18.40;99.90
12761;DHT22;6444;49.742;6.114;2022-10-22T17:12:57;18.30;99.90
12761;DHT22;6444;49.742;6.114;2022-10-22T17:15:24;18.10;99.90
12761;DHT22;6444;49.742;6.114;2022-10-22T17:17:51;18.10;99.90
12761;DHT22;6444;49.742;6.114;2022-10-22T17:20:18;18.00;99.90
12761;DHT22;6444;49.742;6.114;2022-10-22T17:22:45;17.90;99.90
12761;DHT22;6444;49.742;6.114;2022-10-22T17:25:14;18.00;99.90
12761;DHT22;6444;49.742;6.114;2022-10-22T17:27:40;18.00;99.90